Time;durP1;ratioP1;P1;durP2;ratioP2;P2;SDS_P1;SDS_P2;PMS_P1;PMS_P2;Temp;Humidity;BMP_temperature;BMP_pressure;BME280_temperature;BME280_humidity;BME280_pressure;Samples;Min_cycle;Max_cycle;Signal;HPM_P1;HPM_P2
2023/08/08 00:01:42;;;;;;;3.38;1.50;;;20.00;69.10;;;;;;4979165;28;20549;-68
2023/08/08 00:04:09;;;;;;;2.47;1.50;;;20.00;69.30;;;;;;4978853;28;20051;-68
2023/08/08 00:06:35;;;;;;;1.35;1.25;;;20.00;69.20;;;;;;4981118;28;20031;-69
2023/08/08 00:09:01;;;;;;;1.80;1.45;;;20.00;69.20;;;;;;4983577;28;20114;-69
2023/08/08 00:11:26;;;;;;;2.97;1.33;;;20.00;69.30;;;;;;4982549;28;20038;-69
2023/08/08 00:13:52;;;;;;;2.88;1.23;;;20.00;69.10;;;;;;4984257;28;20049;-69
2023/08/08 00:16:17;;;;;;;2.50;1.85;;;20.00;68.70;;;;;;4980981;28;20038;-68
2023/08/08 00:18:43;;;;;;;2.13;1.50;;;20.00;69.50;;;;;;4980539;28;20523;-69
2023/08/08 00:21:09;;;;;;;1.98;1.48;;;20.00;69.30;;;;;;4980146;28;20031;-69
2023/08/08 00:23:34;;;;;;;2.42;1.20;;;20.00;69.40;;;;;;4980117;28;20042;-68
2023/08/08 00:26:00;;;;;;;2.08;1.50;;;20.00;68.70;;;;;;4974253;28;20034;-68
2023/08/08 00:28:25;;;;;;;1.90;1.38;;;20.00;69.30;;;;;;4977225;28;20128;-71
2023/08/08 00:30:51;;;;;;;2.92;1.48;;;20.00;69.10;;;;;;4976636;28;20034;-69
2023/08/08 00:33:16;;;;;;;2.72;1.30;;;20.00;69.00;;;;;;4979269;28;20134;-69
2023/08/08 00:35:42;;;;;;;4.65;1.60;;;19.90;69.40;;;;;;4981914;28;20045;-69
2023/08/08 00:38:08;;;;;;;4.22;1.58;;;20.00;69.40;;;;;;4980334;28;20418;-69
2023/08/08 00:40:33;;;;;;;2.70;1.30;;;20.00;69.30;;;;;;4980408;28;20026;-69
2023/08/08 00:42:59;;;;;;;2.85;1.27;;;19.90;69.20;;;;;;4978645;28;20117;-70
2023/08/08 00:45:25;;;;;;;2.65;1.33;;;20.00;69.50;;;;;;4978974;28;20136;-69
2023/08/08 00:47:50;;;;;;;3.75;1.10;;;20.00;69.30;;;;;;4977765;28;20027;-69
2023/08/08 00:50:17;;;;;;;2.03;1.30;;;20.00;69.50;;;;;;4982625;28;20038;-69
2023/08/08 00:52:44;;;;;;;2.78;1.35;;;20.00;69.40;;;;;;4977186;28;20041;-68
2023/08/08 00:55:10;;;;;;;3.30;1.40;;;19.90;69.10;;;;;;4972302;28;20031;-70
2023/08/08 00:57:38;;;;;;;2.08;1.20;;;19.90;69.30;;;;;;4977924;28;20018;-69
2023/08/08 01:00:09;;;;;;;2.67;1.40;;;19.90;69.30;;;;;;4975049;28;20070;-69
2023/08/08 01:02:36;;;;;;;3.80;1.45;;;19.90;69.00;;;;;;4971904;28;20034;-69
2023/08/08 01:05:03;;;;;;;2.45;1.30;;;19.90;69.30;;;;;;4971316;28;20030;-69
2023/08/08 01:07:46;;;;;;;1.80;1.55;;;19.90;69.50;;;;;;4980955;28;20169;-68
2023/08/08 01:10:16;;;;;;;2.35;1.20;;;19.90;69.50;;;;;;4988274;28;20113;-69
2023/08/08 01:12:47;;;;;;;2.30;1.20;;;19.90;69.40;;;;;;4979588;28;20563;-68
2023/08/08 01:15:14;;;;;;;2.83;1.33;;;19.90;69.30;;;;;;4973910;28;20417;-68
2023/08/08 01:17:42;;;;;;;2.72;1.42;;;19.90;69.10;;;;;;4979853;28;20580;-68
2023/08/08 01:20:08;;;;;;;2.00;1.30;;;19.90;69.30;;;;;;4979135;28;20673;-68
2023/08/08 01:22:43;;;;;;;2.85;1.30;;;19.90;69.50;;;;;;4976804;28;20097;-68
2023/08/08 01:25:10;;;;;;;2.03;1.17;;;19.90;69.10;;;;;;4975086;28;20473;-68
2023/08/08 01:27:36;;;;;;;2.00;1.58;;;19.90;69.50;;;;;;4981335;28;20353;-69
2023/08/08 01:30:02;;;;;;;1.90;1.40;;;19.90;69.50;;;;;;4990160;28;20057;-68
2023/08/08 01:32:27;;;;;;;2.85;1.38;;;19.90;69.70;;;;;;4985785;28;20110;-68
2023/08/08 01:34:53;;;;;;;2.38;1.40;;;19.90;69.50;;;;;;4979485;28;20027;-69
2023/08/08 01:37:31;;;;;;;2.47;1.35;;;19.90;69.50;;;;;;4983848;28;20038;-69
2023/08/08 01:40:00;;;;;;;1.95;1.10;;;19.90;69.50;;;;;;4975063;28;20030;-69
2023/08/08 01:42:26;;;;;;;1.83;1.30;;;19.90;69.20;;;;;;4984603;28;20045;-66
2023/08/08 01:44:54;;;;;;;2.58;1.10;;;19.90;69.30;;;;;;4981684;28;20114;-69
2023/08/08 01:47:19;;;;;;;1.77;1.27;;;19.90;69.10;;;;;;4979099;28;20041;-69
2023/08/08 01:49:45;;;;;;;3.97;2.03;;;19.90;69.10;;;;;;4978989;28;20030;-69
2023/08/08 01:52:11;;;;;;;2.72;1.15;;;19.90;69.30;;;;;;4979862;28;20034;-68
2023/08/08 01:54:36;;;;;;;1.90;1.10;;;19.90;69.30;;;;;;4978066;28;20070;-69
2023/08/08 01:57:02;;;;;;;2.45;1.55;;;19.90;69.30;;;;;;4978355;28;20042;-68
2023/08/08 01:59:27;;;;;;;2.45;1.42;;;19.90;68.60;;;;;;4981768;28;20529;-70
2023/08/08 02:01:53;;;;;;;1.98;1.58;;;19.80;69.40;;;;;;4980166;28;20427;-68
2023/08/08 02:04:20;;;;;;;1.52;1.27;;;19.80;69.10;;;;;;4980876;28;20039;-67
2023/08/08 02:06:45;;;;;;;1.50;1.40;;;19.90;69.30;;;;;;4983066;28;20462;-67
2023/08/08 02:09:11;;;;;;;1.95;1.20;;;19.80;69.20;;;;;;4980223;28;20062;-69
2023/08/08 02:11:36;;;;;;;2.42;1.90;;;19.80;69.10;;;;;;4983914;28;20701;-70
2023/08/08 02:14:02;;;;;;;1.40;1.17;;;19.80;69.20;;;;;;4980420;28;20034;-68
2023/08/08 02:16:27;;;;;;;3.20;1.40;;;19.80;69.10;;;;;;4982663;28;20026;-66
2023/08/08 02:18:53;;;;;;;3.35;1.50;;;19.80;69.30;;;;;;4983775;28;20030;-67
2023/08/08 02:21:19;;;;;;;3.38;1.45;;;19.80;69.10;;;;;;4974187;28;20062;-68
2023/08/08 02:23:44;;;;;;;1.42;1.30;;;19.80;69.30;;;;;;4977374;28;20031;-69
2023/08/08 02:26:10;;;;;;;1.58;1.27;;;19.80;69.10;;;;;;4977304;28;20043;-69
2023/08/08 02:28:35;;;;;;;2.35;1.42;;;19.80;69.20;;;;;;4980450;28;20034;-68
2023/08/08 02:31:01;;;;;;;2.22;1.40;;;19.70;69.10;;;;;;4981136;28;20046;-65
2023/08/08 02:33:26;;;;;;;3.53;1.40;;;19.80;69.20;;;;;;4984351;28;20057;-67
2023/08/08 02:35:52;;;;;;;2.60;1.15;;;19.80;69.10;;;;;;4984373;28;20030;-67
2023/08/08 02:38:18;;;;;;;1.83;0.93;;;19.80;69.10;;;;;;4975121;28;20057;-66
2023/08/08 02:40:43;;;;;;;1.73;1.27;;;19.80;68.90;;;;;;4982675;28;20823;-67
2023/08/08 02:43:10;;;;;;;1.90;1.30;;;19.70;68.90;;;;;;4978474;28;20672;-67
2023/08/08 02:45:36;;;;;;;3.33;1.58;;;19.70;69.10;;;;;;4983524;28;20110;-67
2023/08/08 02:48:01;;;;;;;3.28;1.33;;;19.70;69.10;;;;;;4981338;28;20138;-67
2023/08/08 02:50:27;;;;;;;2.50;1.27;;;19.70;68.60;;;;;;4976474;28;20118;-68
2023/08/08 02:52:52;;;;;;;2.42;1.60;;;19.70;69.10;;;;;;4980165;28;20049;-68
2023/08/08 02:55:18;;;;;;;2.83;1.33;;;19.70;69.20;;;;;;4980832;28;20486;-68
2023/08/08 02:57:44;;;;;;;2.10;1.38;;;19.70;69.20;;;;;;4983462;28;20072;-66
2023/08/08 03:00:11;;;;;;;1.60;1.05;;;19.70;69.20;;;;;;4982738;28;20948;-68
2023/08/08 03:02:36;;;;;;;2.22;1.20;;;19.70;69.10;;;;;;4982887;28;20092;-67
2023/08/08 03:05:02;;;;;;;2.25;1.42;;;19.70;69.10;;;;;;4977521;28;20512;-66
2023/08/08 03:07:28;;;;;;;1.58;1.23;;;19.70;69.20;;;;;;4984323;28;20492;-68
2023/08/08 03:09:53;;;;;;;2.17;1.35;;;19.70;69.10;;;;;;4978623;28;20061;-67
2023/08/08 03:12:19;;;;;;;1.48;1.20;;;19.70;69.20;;;;;;4977563;28;20162;-66
2023/08/08 03:14:44;;;;;;;3.13;1.40;;;19.70;69.30;;;;;;4982729;28;20057;-67
2023/08/08 03:17:10;;;;;;;1.92;1.10;;;19.70;69.10;;;;;;4981397;28;20342;-67
2023/08/08 03:19:35;;;;;;;1.23;1.00;;;19.70;69.30;;;;;;4976336;28;20050;-67
2023/08/08 03:22:01;;;;;;;3.15;1.30;;;19.70;69.10;;;;;;4978278;28;20125;-68
2023/08/08 03:24:26;;;;;;;1.20;0.93;;;19.70;69.30;;;;;;4977459;28;20354;-68
2023/08/08 03:26:52;;;;;;;1.25;1.08;;;19.70;69.00;;;;;;4980294;28;20081;-67
2023/08/08 03:29:17;;;;;;;2.33;1.30;;;19.60;69.30;;;;;;4983903;28;20035;-66
2023/08/08 03:31:43;;;;;;;2.25;1.30;;;19.60;69.20;;;;;;4983099;28;20031;-68
2023/08/08 03:34:08;;;;;;;2.15;1.40;;;19.60;69.40;;;;;;4980977;28;20030;-67
2023/08/08 03:36:34;;;;;;;1.25;1.00;;;19.60;69.20;;;;;;4981604;28;20038;-67
2023/08/08 03:38:59;;;;;;;1.63;1.40;;;19.60;69.10;;;;;;4981762;28;20399;-68
2023/08/08 03:41:25;;;;;;;1.65;1.10;;;19.60;69.30;;;;;;4978569;28;20715;-65
2023/08/08 03:43:51;;;;;;;1.90;1.42;;;19.60;69.30;;;;;;4979231;28;20533;-67
2023/08/08 03:46:16;;;;;;;1.40;0.80;;;19.60;69.10;;;;;;4981905;28;20508;-69
2023/08/08 03:48:42;;;;;;;1.88;1.10;;;19.60;69.40;;;;;;4976394;28;20045;-67
2023/08/08 03:51:07;;;;;;;1.80;0.70;;;19.60;69.30;;;;;;4975836;28;20046;-70
2023/08/08 03:53:33;;;;;;;3.05;1.90;;;19.60;69.20;;;;;;4976216;28;20034;-69
2023/08/08 03:55:58;;;;;;;1.52;1.20;;;19.60;69.20;;;;;;4978519;28;20072;-69
2023/08/08 03:58:24;;;;;;;1.70;1.38;;;19.60;69.10;;;;;;4982471;28;20066;-69
2023/08/08 04:00:49;;;;;;;1.15;0.90;;;19.60;69.30;;;;;;4981336;28;20337;-67
2023/08/08 04:03:16;;;;;;;1.77;1.23;;;19.60;69.40;;;;;;4978720;28;20046;-69
2023/08/08 04:05:47;;;;;;;3.47;1.40;;;19.60;69.00;;;;;;4976444;28;20050;-69
2023/08/08 04:08:14;;;;;;;2.83;1.20;;;19.60;69.20;;;;;;4976643;28;20031;-68
2023/08/08 04:10:39;;;;;;;1.95;1.23;;;19.60;69.40;;;;;;4979134;28;20482;-68
2023/08/08 04:13:05;;;;;;;1.27;1.05;;;19.60;69.30;;;;;;4977255;28;20023;-68
2023/08/08 04:15:30;;;;;;;1.75;1.20;;;19.60;69.40;;;;;;4975998;28;20035;-67
2023/08/08 04:17:56;;;;;;;1.40;1.10;;;19.50;69.20;;;;;;4976371;28;20033;-69
2023/08/08 04:20:22;;;;;;;2.55;1.20;;;19.60;69.20;;;;;;4975226;28;20026;-69
2023/08/08 04:22:48;;;;;;;1.95;1.38;;;19.50;69.00;;;;;;4977558;28;20035;-69
2023/08/08 04:25:14;;;;;;;2.22;1.40;;;19.60;69.10;;;;;;4975507;28;20614;-69
2023/08/08 04:27:40;;;;;;;2.00;1.27;;;19.60;68.70;;;;;;4982483;28;20034;-68
2023/08/08 04:30:06;;;;;;;1.90;1.40;;;19.60;69.40;;;;;;4982861;28;20030;-67
2023/08/08 04:32:32;;;;;;;2.03;1.52;;;19.60;69.10;;;;;;4977148;28;20030;-69
2023/08/08 04:34:58;;;;;;;3.08;1.25;;;19.50;68.30;;;;;;4977622;28;20540;-70
2023/08/08 04:37:23;;;;;;;2.15;1.45;;;19.60;69.20;;;;;;4977784;28;20622;-69
2023/08/08 04:39:49;;;;;;;4.15;1.42;;;19.60;68.10;;;;;;4980092;28;20034;-70
2023/08/08 04:42:14;;;;;;;2.53;1.63;;;19.60;69.20;;;;;;4978853;28;20039;-69
2023/08/08 04:44:40;;;;;;;1.40;1.17;;;19.60;68.80;;;;;;4981087;28;20118;-69
2023/08/08 04:47:05;;;;;;;1.67;1.17;;;19.70;69.20;;;;;;4976781;28;20031;-70
2023/08/08 04:49:31;;;;;;;1.52;1.10;;;19.70;69.20;;;;;;4977187;28;20045;-70
2023/08/08 04:51:56;;;;;;;3.03;1.10;;;19.70;68.80;;;;;;4980579;28;20420;-69
2023/08/08 04:54:22;;;;;;;3.15;1.30;;;19.70;68.90;;;;;;4978907;28;20038;-70
2023/08/08 04:56:47;;;;;;;2.35;1.33;;;19.70;68.60;;;;;;4981426;28;20050;-70
2023/08/08 04:59:13;;;;;;;1.25;1.10;;;19.70;68.00;;;;;;4977636;28;20053;-69
2023/08/08 05:01:39;;;;;;;2.58;1.58;;;19.70;69.00;;;;;;4978379;28;20030;-68
2023/08/08 05:04:04;;;;;;;2.00;1.05;;;19.70;68.80;;;;;;4973840;28;20144;-68
2023/08/08 05:06:30;;;;;;;2.55;1.20;;;19.70;69.00;;;;;;4982481;28;20110;-68
2023/08/08 05:08:56;;;;;;;2.55;1.17;;;19.70;69.00;;;;;;4980835;28;20042;-67
2023/08/08 05:11:22;;;;;;;1.67;1.27;;;19.70;69.10;;;;;;4979599;28;20034;-68
2023/08/08 05:13:48;;;;;;;4.05;2.05;;;19.70;68.90;;;;;;4981638;28;20125;-71
2023/08/08 05:16:13;;;;;;;6.35;3.67;;;19.70;68.60;;;;;;4974267;28;20034;-69
2023/08/08 05:18:39;;;;;;;6.20;3.90;;;19.70;68.90;;;;;;4976074;28;20054;-68
2023/08/08 05:21:04;;;;;;;7.70;4.90;;;19.70;69.00;;;;;;4978370;28;20098;-68
2023/08/08 05:23:30;;;;;;;8.65;4.95;;;19.70;68.90;;;;;;4984281;28;20042;-70
2023/08/08 05:25:55;;;;;;;8.48;3.58;;;19.70;69.00;;;;;;4989138;28;20041;-69
2023/08/08 05:28:21;;;;;;;7.70;4.32;;;19.70;69.00;;;;;;4983726;28;20034;-68
2023/08/08 05:30:46;;;;;;;7.57;3.90;;;19.70;68.80;;;;;;4981830;28;20105;-67
2023/08/08 05:33:12;;;;;;;6.18;3.30;;;19.70;68.80;;;;;;4983676;28;20465;-67
2023/08/08 05:35:37;;;;;;;5.53;2.63;;;19.70;68.80;;;;;;4981065;28;20529;-66
2023/08/08 05:38:03;;;;;;;3.97;3.08;;;19.70;68.70;;;;;;4978691;28;20030;-68
2023/08/08 05:40:29;;;;;;;5.43;3.40;;;19.70;68.60;;;;;;4982556;28;20041;-69
2023/08/08 05:42:54;;;;;;;5.60;3.08;;;19.70;68.60;;;;;;4983859;28;20120;-68
2023/08/08 05:45:20;;;;;;;4.40;3.05;;;19.70;68.90;;;;;;4974873;28;20038;-69
2023/08/08 05:47:45;;;;;;;7.65;3.67;;;19.80;69.00;;;;;;4978661;28;20088;-68
2023/08/08 05:50:11;;;;;;;5.03;3.38;;;19.70;69.30;;;;;;4977414;28;20049;-68
2023/08/08 05:52:36;;;;;;;5.47;3.00;;;19.70;69.40;;;;;;4978931;28;20294;-70
2023/08/08 05:55:02;;;;;;;5.38;3.20;;;19.70;68.90;;;;;;4980057;28;20397;-69
2023/08/08 05:57:28;;;;;;;5.60;3.58;;;19.80;69.50;;;;;;4983737;28;20053;-70
2023/08/08 05:59:53;;;;;;;5.53;3.60;;;19.80;69.60;;;;;;4957251;28;20036;-68
2023/08/08 06:02:19;;;;;;;7.97;3.20;;;19.80;69.30;;;;;;4956140;28;20039;-69
2023/08/08 06:04:45;;;;;;;10.55;3.00;;;19.80;69.10;;;;;;4957532;28;20477;-69
2023/08/08 06:07:10;;;;;;;4.28;3.20;;;19.90;68.90;;;;;;4960304;28;20042;-68
2023/08/08 06:09:37;;;;;;;4.55;2.33;;;19.80;68.20;;;;;;4966151;28;20038;-68
2023/08/08 06:12:03;;;;;;;4.22;2.00;;;19.80;67.90;;;;;;4955820;28;20089;-67
2023/08/08 06:14:30;;;;;;;5.00;2.40;;;19.70;68.80;;;;;;4959116;28;20032;-70
2023/08/08 06:16:55;;;;;;;5.18;2.25;;;19.70;67.80;;;;;;4952753;28;20050;-70
2023/08/08 06:19:21;;;;;;;4.30;2.63;;;19.70;67.40;;;;;;4957902;28;20023;-68
2023/08/08 06:21:46;;;;;;;2.75;2.10;;;19.70;67.90;;;;;;4946290;28;20384;-68
2023/08/08 06:24:12;;;;;;;4.63;2.67;;;19.70;67.50;;;;;;4963220;28;20033;-68
2023/08/08 06:26:38;;;;;;;5.05;2.08;;;19.70;67.70;;;;;;4963495;28;20065;-68
2023/08/08 06:29:03;;;;;;;3.35;1.70;;;19.70;66.50;;;;;;4944165;28;20035;-68
2023/08/08 06:31:30;;;;;;;2.63;1.70;;;19.70;67.10;;;;;;4957708;28;20027;-69
2023/08/08 06:33:55;;;;;;;2.95;2.17;;;19.60;67.50;;;;;;4962747;28;20050;-68
2023/08/08 06:36:21;;;;;;;4.50;1.75;;;19.60;67.70;;;;;;4962696;28;20122;-68
2023/08/08 06:38:46;;;;;;;3.00;1.75;;;19.60;68.30;;;;;;4947324;28;20037;-68
2023/08/08 06:41:12;;;;;;;3.20;1.65;;;19.60;68.30;;;;;;4962719;28;20545;-69
2023/08/08 06:43:38;;;;;;;3.17;1.60;;;19.60;68.40;;;;;;4959545;28;20383;-67
2023/08/08 06:46:04;;;;;;;2.70;1.73;;;19.60;68.30;;;;;;4943491;28;20078;-69
2023/08/08 06:48:30;;;;;;;9.00;3.13;;;19.60;68.30;;;;;;4959682;28;20554;-69
2023/08/08 06:50:55;;;;;;;11.23;5.15;;;19.60;67.90;;;;;;4944241;28;20035;-67
2023/08/08 06:53:21;;;;;;;21.45;7.65;;;19.70;69.60;;;;;;4963233;28;20036;-68
2023/08/08 06:55:46;;;;;;;18.08;7.40;;;19.70;70.00;;;;;;4947873;28;20118;-68
2023/08/08 06:58:12;;;;;;;16.77;7.00;;;19.70;70.40;;;;;;4945751;28;20113;-67
2023/08/08 07:00:37;;;;;;;16.20;7.57;;;19.70;70.10;;;;;;4962295;28;20035;-67
2023/08/08 07:03:03;;;;;;;21.98;6.97;;;19.70;70.10;;;;;;4959521;28;20037;-66
2023/08/08 07:05:29;;;;;;;18.42;7.05;;;19.70;70.20;;;;;;4965507;28;20042;-66
2023/08/08 07:07:55;;;;;;;16.90;6.85;;;19.70;70.50;;;;;;4963979;28;20447;-68
2023/08/08 07:10:20;;;;;;;15.57;5.57;;;19.70;70.10;;;;;;4976685;28;20035;-67
2023/08/08 07:12:46;;;;;;;14.27;5.30;;;19.70;70.30;;;;;;4976272;28;20262;-67
2023/08/08 07:15:12;;;;;;;14.93;5.00;;;19.70;70.20;;;;;;4975702;28;20113;-67
2023/08/08 07:17:38;;;;;;;13.45;5.63;;;19.70;70.40;;;;;;4978989;28;20105;-67
2023/08/08 07:20:05;;;;;;;12.95;5.07;;;19.70;70.20;;;;;;4962004;28;20618;-67
2023/08/08 07:22:32;;;;;;;10.80;4.38;;;19.80;70.40;;;;;;4983338;28;20437;-67
2023/08/08 07:24:57;;;;;;;14.65;4.65;;;19.80;70.10;;;;;;4984696;28;20112;-66
2023/08/08 07:27:23;;;;;;;11.35;4.05;;;19.70;70.00;;;;;;4980073;28;20526;-67
2023/08/08 07:29:49;;;;;;;7.57;3.58;;;19.70;70.20;;;;;;4974899;28;20129;-67
2023/08/08 07:32:14;;;;;;;9.30;3.72;;;19.70;70.20;;;;;;4974242;28;20041;-67
2023/08/08 07:34:40;;;;;;;7.88;3.80;;;19.70;70.00;;;;;;4975533;28;20026;-66
2023/08/08 07:37:05;;;;;;;9.68;3.38;;;19.70;70.10;;;;;;4981196;28;20023;-67
2023/08/08 07:39:31;;;;;;;9.48;3.70;;;19.70;70.30;;;;;;4971216;28;20474;-67
2023/08/08 07:41:57;;;;;;;8.27;3.15;;;19.70;70.30;;;;;;4961447;28;20030;-68
2023/08/08 07:44:22;;;;;;;5.30;2.95;;;19.70;70.10;;;;;;4976910;28;20431;-67
2023/08/08 07:46:48;;;;;;;7.18;3.15;;;19.80;69.70;;;;;;4980076;28;20065;-66
2023/08/08 07:49:14;;;;;;;6.32;2.83;;;19.70;69.60;;;;;;4979226;28;20046;-67
2023/08/08 07:51:40;;;;;;;6.80;2.40;;;19.80;70.20;;;;;;4980793;28;20286;-67
2023/08/08 07:54:08;;;;;;;6.60;3.15;;;19.70;70.20;;;;;;4964214;28;20037;-67
2023/08/08 07:56:34;;;;;;;8.88;2.60;;;19.80;70.40;;;;;;4977716;28;20026;-68
2023/08/08 07:59:01;;;;;;;5.85;2.72;;;19.80;70.20;;;;;;4972343;28;20101;-67
2023/08/08 08:01:27;;;;;;;7.22;2.50;;;19.80;69.60;;;;;;4974187;28;20031;-67
2023/08/08 08:03:52;;;;;;;3.85;2.13;;;19.80;70.20;;;;;;4978305;28;20042;-67
2023/08/08 08:06:18;;;;;;;4.07;2.08;;;19.80;70.10;;;;;;4979769;28;20030;-67
2023/08/08 08:08:44;;;;;;;5.25;1.90;;;19.80;69.50;;;;;;4976771;28;20486;-67
2023/08/08 08:11:09;;;;;;;5.15;2.28;;;19.80;70.10;;;;;;4972904;28;20034;-67
2023/08/08 08:13:35;;;;;;;6.35;2.20;;;19.80;69.90;;;;;;4978799;28;20042;-67
2023/08/08 08:16:00;;;;;;;3.28;2.13;;;19.80;70.10;;;;;;4984419;28;20050;-67
2023/08/08 08:18:26;;;;;;;5.60;2.40;;;19.80;69.70;;;;;;4982555;28;20039;-67
2023/08/08 08:20:51;;;;;;;7.43;2.30;;;19.80;70.00;;;;;;4983966;28;20031;-68
2023/08/08 08:23:17;;;;;;;2.58;1.80;;;19.80;69.90;;;;;;4981558;28;20442;-67
2023/08/08 08:25:42;;;;;;;6.22;2.25;;;19.80;70.00;;;;;;4981857;28;20035;-67
2023/08/08 08:28:08;;;;;;;4.68;1.60;;;19.80;69.70;;;;;;4972513;28;20062;-67
2023/08/08 08:30:33;;;;;;;3.88;1.70;;;19.70;69.40;;;;;;4977586;28;20497;-67
2023/08/08 08:33:00;;;;;;;2.70;1.83;;;19.70;69.10;;;;;;4977561;28;20125;-67
2023/08/08 08:35:26;;;;;;;4.80;1.77;;;19.70;69.60;;;;;;4976096;28;20090;-67
2023/08/08 08:37:51;;;;;;;4.95;2.45;;;19.70;69.40;;;;;;4977035;28;20044;-68
2023/08/08 08:40:17;;;;;;;3.42;2.08;;;19.70;69.40;;;;;;4977465;28;20122;-67
2023/08/08 08:42:44;;;;;;;3.13;1.75;;;19.70;69.40;;;;;;4962177;28;20027;-68
2023/08/08 08:45:11;;;;;;;3.15;1.80;;;19.70;69.40;;;;;;4962571;28;20041;-67
2023/08/08 08:47:40;;;;;;;4.30;2.10;;;19.70;69.20;;;;;;4978859;28;20542;-68
2023/08/08 08:50:07;;;;;;;3.70;1.88;;;19.70;69.10;;;;;;4979059;28;20564;-67
2023/08/08 08:52:32;;;;;;;2.95;1.42;;;19.70;69.20;;;;;;4977815;28;20524;-67
2023/08/08 08:54:58;;;;;;;1.52;1.20;;;19.70;69.30;;;;;;4980062;28;20038;-67
2023/08/08 08:57:24;;;;;;;2.83;1.75;;;19.80;69.10;;;;;;4977418;28;20038;-67
2023/08/08 08:59:51;;;;;;;4.88;1.70;;;19.70;69.10;;;;;;4976600;28;20043;-67
2023/08/08 09:02:18;;;;;;;3.17;1.50;;;19.70;69.20;;;;;;4978753;28;20470;-67
2023/08/08 09:04:45;;;;;;;3.47;1.70;;;19.70;69.00;;;;;;4975215;28;20038;-67
2023/08/08 09:07:12;;;;;;;3.25;1.70;;;19.70;69.10;;;;;;4959626;28;20049;-66
2023/08/08 09:09:38;;;;;;;2.65;1.63;;;19.70;69.00;;;;;;4975995;28;20065;-68
2023/08/08 09:12:07;;;;;;;2.88;1.48;;;19.70;69.10;;;;;;4979862;28;20714;-68
2023/08/08 09:14:32;;;;;;;2.75;1.70;;;19.70;68.80;;;;;;4952254;28;20490;-67
2023/08/08 09:16:58;;;;;;;2.50;1.55;;;19.70;69.60;;;;;;4977665;28;20066;-67
2023/08/08 09:19:24;;;;;;;1.73;1.60;;;19.70;69.10;;;;;;4979482;28;20039;-67
2023/08/08 09:21:51;;;;;;;2.20;1.20;;;19.70;68.90;;;;;;4981491;28;20054;-67
2023/08/08 09:24:17;;;;;;;2.72;1.15;;;19.70;68.90;;;;;;4977025;28;20034;-67
2023/08/08 09:26:43;;;;;;;2.88;1.40;;;19.70;69.00;;;;;;4970834;28;20030;-67
2023/08/08 09:29:14;;;;;;;2.75;1.60;;;19.70;68.90;;;;;;4976293;28;20125;-67
2023/08/08 09:31:40;;;;;;;1.40;1.20;;;19.70;69.10;;;;;;4972114;28;20344;-67
2023/08/08 09:34:06;;;;;;;2.88;1.92;;;19.70;69.00;;;;;;4978453;28;20512;-67
2023/08/08 09:36:33;;;;;;;2.95;1.70;;;19.70;68.60;;;;;;4974053;28;20041;-67
2023/08/08 09:38:59;;;;;;;2.22;1.33;;;19.70;68.30;;;;;;4979192;28;20510;-67
2023/08/08 09:41:26;;;;;;;3.30;1.42;;;19.70;68.90;;;;;;4980262;28;20516;-67
2023/08/08 09:43:52;;;;;;;2.40;1.60;;;19.70;69.10;;;;;;4985387;28;20137;-67
2023/08/08 09:46:19;;;;;;;3.17;1.30;;;19.70;68.90;;;;;;4981256;28;20041;-68
2023/08/08 09:48:46;;;;;;;1.80;1.33;;;19.70;68.50;;;;;;4985570;28;20129;-68
2023/08/08 09:51:12;;;;;;;1.83;1.50;;;19.70;68.90;;;;;;4983767;28;20272;-68
2023/08/08 09:53:38;;;;;;;2.20;1.70;;;19.70;68.50;;;;;;4981037;28;20035;-67
2023/08/08 09:56:05;;;;;;;3.05;1.77;;;19.70;68.80;;;;;;4983325;28;20445;-67
2023/08/08 09:58:31;;;;;;;2.22;1.63;;;19.60;69.00;;;;;;4979736;28;20038;-67
2023/08/08 10:00:58;;;;;;;2.50;1.60;;;19.70;69.10;;;;;;4989890;28;20031;-67
2023/08/08 10:03:24;;;;;;;2.00;1.77;;;19.70;69.10;;;;;;4984134;28;20035;-67
2023/08/08 10:05:49;;;;;;;2.40;1.40;;;19.70;68.90;;;;;;4981330;28;20030;-67
2023/08/08 10:08:16;;;;;;;2.20;1.52;;;19.70;69.10;;;;;;4984219;28;20034;-67
2023/08/08 10:10:44;;;;;;;2.33;1.60;;;19.70;69.20;;;;;;4982924;28;20315;-67
2023/08/08 10:13:10;;;;;;;3.10;1.20;;;19.70;69.10;;;;;;4985701;28;20268;-68
2023/08/08 10:15:39;;;;;;;2.50;1.65;;;19.70;69.30;;;;;;4982954;28;20023;-69
2023/08/08 10:18:06;;;;;;;2.05;1.40;;;19.70;69.20;;;;;;4985284;28;20037;-67
2023/08/08 10:20:34;;;;;;;2.25;1.60;;;19.70;68.90;;;;;;4979819;28;20046;-68
2023/08/08 10:23:02;;;;;;;2.05;1.35;;;19.70;69.30;;;;;;4976537;28;20088;-68
2023/08/08 10:25:30;;;;;;;3.03;1.58;;;19.70;68.80;;;;;;4981337;28;20038;-68
2023/08/08 10:28:03;;;;;;;2.28;1.60;;;19.70;69.10;;;;;;4976156;28;20035;-68
2023/08/08 10:30:29;;;;;;;4.25;1.83;;;19.70;69.30;;;;;;4977366;28;20062;-67
2023/08/08 10:32:57;;;;;;;1.95;1.67;;;19.70;69.20;;;;;;4991308;28;20070;-68
2023/08/08 10:35:24;;;;;;;1.50;1.30;;;19.70;69.10;;;;;;4982398;28;20049;-67
2023/08/08 10:37:57;;;;;;;1.80;1.58;;;19.70;69.20;;;;;;4981459;28;20117;-67
2023/08/08 10:40:23;;;;;;;2.05;1.23;;;19.70;69.10;;;;;;4979263;28;20537;-68
2023/08/08 10:42:51;;;;;;;1.48;1.15;;;19.60;69.10;;;;;;4984978;28;20039;-68
2023/08/08 10:45:17;;;;;;;2.78;1.17;;;19.60;69.20;;;;;;4983913;28;20117;-67
2023/08/08 10:47:43;;;;;;;1.85;1.27;;;19.60;68.70;;;;;;4981385;28;20122;-67
2023/08/08 10:50:11;;;;;;;3.17;1.20;;;19.70;69.00;;;;;;4983732;28;20129;-68
2023/08/08 10:52:49;;;;;;;2.55;1.20;;;19.70;68.10;;;;;;4983171;28;20469;-68
2023/08/08 10:55:26;;;;;;;2.63;1.20;;;19.60;68.50;;;;;;4976439;28;20094;-68
2023/08/08 10:58:07;;;;;;;1.92;1.33;;;19.70;68.70;;;;;;4992472;28;20034;-68
2023/08/08 11:00:34;;;;;;;1.80;1.40;;;19.70;68.20;;;;;;4983462;28;20402;-67
2023/08/08 11:03:00;;;;;;;1.95;1.27;;;19.70;67.90;;;;;;4982411;28;20031;-67
2023/08/08 11:05:30;;;;;;;1.60;1.42;;;19.70;68.40;;;;;;4982559;28;20038;-67
2023/08/08 11:07:56;;;;;;;3.33;1.63;;;19.70;68.30;;;;;;4983544;28;20038;-67
2023/08/08 11:10:22;;;;;;;2.42;1.45;;;19.60;68.20;;;;;;4986287;28;20051;-65
2023/08/08 11:13:03;;;;;;;4.93;1.40;;;19.70;67.70;;;;;;4981217;28;20512;-68
2023/08/08 11:15:29;;;;;;;2.15;1.77;;;19.70;65.90;;;;;;4980111;28;20038;-66
2023/08/08 11:17:59;;;;;;;3.35;1.30;;;19.70;68.10;;;;;;4983068;28;20042;-67
2023/08/08 11:20:24;;;;;;;1.77;1.20;;;19.70;68.20;;;;;;4972594;28;20093;-67
2023/08/08 11:22:54;;;;;;;2.33;1.42;;;19.70;68.30;;;;;;4976819;28;20042;-67
2023/08/08 11:25:21;;;;;;;3.10;1.35;;;19.70;68.20;;;;;;4975697;28;20035;-67
2023/08/08 11:27:53;;;;;;;4.15;2.08;;;19.70;68.30;;;;;;4979987;28;20031;-67
2023/08/08 11:30:20;;;;;;;1.75;1.40;;;19.70;68.20;;;;;;4982770;28;20089;-65
2023/08/08 11:32:49;;;;;;;2.38;1.17;;;19.70;67.60;;;;;;4981178;28;20026;-68
2023/08/08 11:35:23;;;;;;;3.97;1.40;;;19.70;68.20;;;;;;4990139;28;20035;-67
2023/08/08 11:37:52;;;;;;;2.67;1.40;;;19.70;68.20;;;;;;4983482;28;20065;-67
2023/08/08 11:40:19;;;;;;;2.33;1.20;;;19.70;68.00;;;;;;4986310;28;20374;-66
2023/08/08 11:42:45;;;;;;;1.90;1.30;;;19.70;68.10;;;;;;4983168;28;20042;-67
2023/08/08 11:45:11;;;;;;;2.05;1.75;;;19.70;68.20;;;;;;4979826;28;20060;-66
2023/08/08 11:47:38;;;;;;;2.92;1.30;;;19.70;67.80;;;;;;4986383;28;20106;-66
2023/08/08 11:50:06;;;;;;;2.03;1.40;;;19.70;67.70;;;;;;4987157;28;20113;-67
2023/08/08 11:52:32;;;;;;;2.92;1.58;;;19.60;68.80;;;;;;4978419;28;20034;-66
2023/08/08 11:55:01;;;;;;;1.45;1.23;;;19.60;67.20;;;;;;4975941;28;20406;-66
2023/08/08 11:57:27;;;;;;;2.17;1.40;;;19.70;67.90;;;;;;4979764;28;20112;-65
2023/08/08 11:59:57;;;;;;;2.38;1.45;;;19.70;67.40;;;;;;4978299;28;20034;-67
2023/08/08 12:02:23;;;;;;;2.47;1.70;;;19.70;67.90;;;;;;4979009;28;20030;-70
2023/08/08 12:04:48;;;;;;;1.10;1.00;;;19.60;67.90;;;;;;4982042;28;20600;-68
2023/08/08 12:07:14;;;;;;;1.83;1.10;;;19.60;68.00;;;;;;4982616;28;20046;-68
2023/08/08 12:09:40;;;;;;;1.63;1.27;;;19.60;67.30;;;;;;4980335;28;20478;-66
2023/08/08 12:12:08;;;;;;;3.65;1.20;;;19.70;67.60;;;;;;4981725;28;20046;-67
2023/08/08 12:14:41;;;;;;;3.67;1.60;;;19.70;67.80;;;;;;4977507;28;20038;-67
2023/08/08 12:17:08;;;;;;;5.55;1.65;;;19.70;67.40;;;;;;4965164;28;20054;-67
2023/08/08 12:19:34;;;;;;;3.60;1.88;;;19.60;68.20;;;;;;4981214;28;20035;-68
2023/08/08 12:22:00;;;;;;;5.18;1.67;;;19.60;68.00;;;;;;4974342;28;20033;-67
2023/08/08 12:24:25;;;;;;;4.43;1.40;;;19.60;68.70;;;;;;4977640;28;20117;-67
2023/08/08 12:26:51;;;;;;;4.38;1.60;;;19.60;68.50;;;;;;4976425;28;20054;-68
2023/08/08 12:29:17;;;;;;;2.72;1.70;;;19.70;68.20;;;;;;4978600;28;20412;-66
2023/08/08 12:31:42;;;;;;;2.42;1.50;;;19.70;68.10;;;;;;4978457;28;20088;-67
2023/08/08 12:34:08;;;;;;;3.20;1.60;;;19.70;68.40;;;;;;4982643;28;20110;-68
2023/08/08 12:36:34;;;;;;;3.85;1.40;;;19.70;68.50;;;;;;4979950;28;20097;-67
2023/08/08 12:38:59;;;;;;;1.95;1.40;;;19.70;68.20;;;;;;4979571;28;20394;-67
2023/08/08 12:41:25;;;;;;;3.25;1.33;;;19.70;67.60;;;;;;4980754;28;20142;-67